Liberta — V2CM3 — position and weather

sailwx.info

Track history (hours):
 
Tides and Currents Weather Stations Pressure Air Temp Water Temp Dewpoint Dewpoint Depression Visibility Wind Speed Wind Dir Waves Ship Positions

Liberta

Last reported at 2017-Aug-07 06:09 UTC. Time now 2017-Aug-23 17:43 UTC.
Position N 43°37' W 004°44'.
Warning: this ship's position is 16 days out of date.

Length 138 m; draft 5.2 m.

Type: Cargo ship. MMSI: 305043000.

Date/timePositionNaut miles runAvg speedWind from/ knotsBaromVisibWave heightAir tempDewpointWater temp
2017-Aug-07 06:09N 43°37' W 004°44'710.7
2017-Aug-07 05:30N 43°38' W 004°54'511.0
2017-Aug-07 05:00N 43°39' W 005°01'510.4
2017-Aug-07 04:30N 43°39' W 005°09'510.4
2017-Aug-07 03:59N 43°41' W 005°16'510.5
2017-Aug-07 03:30N 43°41' W 005°23'510.8
2017-Aug-07 03:00N 43°42' W 005°30'611.0
2017-Aug-07 02:30N 43°42' W 005°38'510.8
2017-Aug-07 01:59N 43°42' W 005°45'510.5
2017-Aug-07 01:30N 43°42' W 005°52'5 9.2
2017-Aug-07 00:55N 43°38' W 005°57'  
2017-Aug-02 11:03N 43°36' W 005°58'1 8.3
2017-Aug-02 11:00N 43°36' W 005°58'3 6.9
2017-Aug-02 10:30N 43°38' W 006°03'  
2017-Jul-29 10:59N 41°57' W 029°30'2310.7
2017-Jul-29 08:48N 41°54' W 030°01'3111.0
2017-Jul-29 05:57N 41°49' W 030°42'1511.1
2017-Jul-29 04:35N 41°47' W 031°03'911.2
2017-Jul-29 03:46N 41°46' W 031°15'1611.2
2017-Jul-29 02:19N 41°42' W 031°36'511.0
2017-Jul-29 01:54N 41°42' W 031°42'910.9
2017-Jul-29 01:04N 41°41' W 031°54'210.6
2017-Jul-29 00:54N 41°41' W 031°56'  
Track history (hours):
 
Tides and Currents Weather Stations Pressure Air Temp Water Temp Dewpoint Dewpoint Depression Visibility Wind Speed Wind Dir Waves Ship Positions

Liberta

Last reported at 2017-Aug-07 06:09 UTC. Time now 2017-Aug-23 17:43 UTC.
Position N 43°37' W 004°44'.
Warning: this ship's position is 16 days out of date.

Length 138 m; draft 5.2 m.

Type: Cargo ship. MMSI: 305043000.

Date/timePositionNaut miles runAvg speedWind from/ knotsBaromVisibWave heightAir tempDewpointWater temp
2017-Aug-07 06:09N 43°37' W 004°44'710.7
2017-Aug-07 05:30N 43°38' W 004°54'511.0
2017-Aug-07 05:00N 43°39' W 005°01'510.4
2017-Aug-07 04:30N 43°39' W 005°09'510.4
2017-Aug-07 03:59N 43°41' W 005°16'510.5
2017-Aug-07 03:30N 43°41' W 005°23'510.8
2017-Aug-07 03:00N 43°42' W 005°30'611.0
2017-Aug-07 02:30N 43°42' W 005°38'510.8
2017-Aug-07 01:59N 43°42' W 005°45'510.5
2017-Aug-07 01:30N 43°42' W 005°52'5 9.2
2017-Aug-07 00:55N 43°38' W 005°57'  
2017-Aug-02 11:03N 43°36' W 005°58'1 8.3
2017-Aug-02 11:00N 43°36' W 005°58'3 6.9
2017-Aug-02 10:30N 43°38' W 006°03'  
2017-Jul-29 10:59N 41°57' W 029°30'2310.7
2017-Jul-29 08:48N 41°54' W 030°01'3111.0
2017-Jul-29 05:57N 41°49' W 030°42'1511.1
2017-Jul-29 04:35N 41°47' W 031°03'911.2
2017-Jul-29 03:46N 41°46' W 031°15'1611.2
2017-Jul-29 02:19N 41°42' W 031°36'511.0
2017-Jul-29 01:54N 41°42' W 031°42'910.9
2017-Jul-29 01:04N 41°41' W 031°54'210.6
2017-Jul-29 00:54N 41°41' W 031°56'  

Dump ship's entire track history